createdAt,value
2018-08-29T00:00:09.805Z,8.10
2018-08-29T00:02:38.943Z,8.33
2018-08-29T00:05:08.126Z,8.17
2018-08-29T00:07:42.654Z,8.67
2018-08-29T00:10:17.793Z,8.50
2018-08-29T00:12:47.651Z,8.23
2018-08-29T00:15:16.821Z,8.60
2018-08-29T00:17:45.984Z,7.83
2018-08-29T00:20:15.152Z,8.77
2018-08-29T00:22:44.630Z,8.87
2018-08-29T00:25:16.701Z,7.97
2018-08-29T00:27:45.882Z,9.50
2018-08-29T00:30:15.064Z,9.63
2018-08-29T00:32:44.244Z,9.10
2018-08-29T00:35:13.579Z,9.20
2018-08-29T00:37:42.741Z,9.00
2018-08-29T00:40:11.887Z,8.80
2018-08-29T00:42:43.838Z,8.67
2018-08-29T00:45:13.296Z,8.87
2018-08-29T00:47:42.455Z,9.07
2018-08-29T00:50:11.655Z,9.60
2018-08-29T00:52:40.802Z,9.20
2018-08-29T00:55:10.023Z,9.50
2018-08-29T00:57:39.695Z,9.17
2018-08-29T01:00:10.566Z,9.13
2018-08-29T01:02:39.743Z,9.13
2018-08-29T01:05:08.910Z,9.17
2018-08-29T01:07:38.388Z,8.70
2018-08-29T01:10:07.562Z,9.20
2018-08-29T01:12:36.746Z,8.60
2018-08-29T01:15:06.058Z,8.77
2018-08-29T01:17:35.216Z,9.03
2018-08-29T01:20:04.758Z,9.57
2018-08-29T01:22:33.895Z,9.07
2018-08-29T01:25:03.049Z,9.00
2018-08-29T01:27:32.205Z,9.33
2018-08-29T01:30:01.427Z,9.20
2018-08-29T01:32:30.538Z,9.03
2018-08-29T01:34:59.742Z,9.27
2018-08-29T01:37:29.112Z,9.33
2018-08-29T01:39:58.280Z,8.83
2018-08-29T01:42:27.498Z,9.03
2018-08-29T01:44:56.629Z,8.63
2018-08-29T01:47:26.204Z,9.27
2018-08-29T01:49:55.333Z,9.03
2018-08-29T01:52:24.524Z,9.83
2018-08-29T01:54:53.672Z,8.43
2018-08-29T01:57:22.885Z,10.10
2018-08-29T01:59:52.080Z,9.53
2018-08-29T02:02:21.218Z,8.63
2018-08-29T02:04:50.362Z,9.93
2018-08-29T02:07:19.904Z,9.60
2018-08-29T02:09:49.077Z,9.13
2018-08-29T02:12:18.533Z,8.80
2018-08-29T02:14:47.711Z,9.77
2018-08-29T02:17:16.894Z,9.20
2018-08-29T02:19:46.451Z,9.30
2018-08-29T02:22:15.624Z,8.97
2018-08-29T02:24:44.793Z,9.40
2018-08-29T02:27:13.967Z,9.43
2018-08-29T02:29:43.136Z,9.53
2018-08-29T02:32:12.293Z,9.73
2018-08-29T02:34:41.535Z,9.73
2018-08-29T02:37:10.734Z,9.20
2018-08-29T02:39:39.874Z,9.63
2018-08-29T02:42:14.226Z,9.90
2018-08-29T02:44:43.419Z,9.63
2018-08-29T02:47:12.540Z,10.03
2018-08-29T02:49:41.769Z,9.80
2018-08-29T02:52:11.287Z,10.03
2018-08-29T02:54:40.430Z,10.03
2018-08-29T02:57:09.626Z,10.07
2018-08-29T02:59:38.763Z,9.93
2018-08-29T03:02:07.898Z,9.70
2018-08-29T03:04:37.078Z,10.63
2018-08-29T03:07:06.298Z,10.37
2018-08-29T03:09:36.730Z,9.93
2018-08-29T03:12:05.892Z,10.27
2018-08-29T03:14:35.095Z,11.67
2018-08-29T03:17:04.253Z,10.07
2018-08-29T03:19:33.395Z,10.93
2018-08-29T03:22:02.626Z,10.33
2018-08-29T03:24:31.866Z,9.63
2018-08-29T03:27:01.035Z,10.07
2018-08-29T03:29:30.186Z,10.87
2018-08-29T03:31:59.386Z,10.17
2018-08-29T03:34:28.527Z,10.10
2018-08-29T03:36:57.705Z,10.23
2018-08-29T03:39:26.871Z,10.47
2018-08-29T03:41:56.004Z,10.50
2018-08-29T03:44:25.579Z,10.73
2018-08-29T03:46:54.835Z,9.73
2018-08-29T03:49:24.196Z,10.07
2018-08-29T03:51:53.306Z,9.80
2018-08-29T03:54:22.545Z,9.83
2018-08-29T03:56:51.635Z,10.57
2018-08-29T03:59:20.769Z,9.67
2018-08-29T04:01:49.974Z,10.43
2018-08-29T04:04:19.170Z,10.50
2018-08-29T04:06:48.344Z,9.97
2018-08-29T04:09:17.509Z,10.37
2018-08-29T04:11:46.749Z,10.23
2018-08-29T04:14:15.955Z,9.67
2018-08-29T04:16:45.093Z,10.07
2018-08-29T04:19:14.262Z,10.20
2018-08-29T04:21:43.456Z,10.10
2018-08-29T04:24:12.561Z,10.37
2018-08-29T04:26:41.730Z,10.43
2018-08-29T04:29:10.863Z,10.60
2018-08-29T04:31:40.023Z,11.00
2018-08-29T04:34:09.290Z,9.90
2018-08-29T04:36:38.366Z,10.63
2018-08-29T04:39:08.044Z,10.23
2018-08-29T04:41:37.220Z,9.87
2018-08-29T04:44:06.409Z,10.53
2018-08-29T04:46:35.565Z,10.33
2018-08-29T04:49:05.113Z,9.83
2018-08-29T04:51:34.278Z,9.87
2018-08-29T04:54:03.520Z,10.07
2018-08-29T04:56:32.666Z,10.23
2018-08-29T04:59:01.888Z,11.07
2018-08-29T05:01:31.439Z,10.27
2018-08-29T05:04:00.971Z,10.63
2018-08-29T05:06:30.027Z,10.77
2018-08-29T05:08:59.401Z,10.87
2018-08-29T05:11:28.556Z,11.47
2018-08-29T05:13:57.727Z,12.50
2018-08-29T05:16:26.963Z,10.80
2018-08-29T05:18:56.183Z,11.97
2018-08-29T05:21:25.465Z,12.27
2018-08-29T05:23:54.656Z,10.90
2018-08-29T05:26:23.799Z,10.57
2018-08-29T05:28:53.069Z,10.20
2018-08-29T05:31:22.219Z,11.63
2018-08-29T05:33:51.403Z,12.53
2018-08-29T05:36:20.578Z,12.00
2018-08-29T05:38:49.729Z,10.57
2018-08-29T05:41:18.879Z,11.30
2018-08-29T05:43:48.147Z,11.30
2018-08-29T05:46:17.325Z,11.63
2018-08-29T05:48:46.573Z,11.63
2018-08-29T05:51:15.908Z,11.27
2018-08-29T05:53:45.169Z,11.37
2018-08-29T05:56:15.019Z,12.60
2018-08-29T05:58:44.186Z,11.43
2018-08-29T06:01:13.389Z,11.13
2018-08-29T06:03:42.545Z,11.13
2018-08-29T06:06:11.693Z,12.13
2018-08-29T06:08:40.854Z,11.87
2018-08-29T06:11:10.023Z,11.13
2018-08-29T06:13:39.279Z,11.60
2018-08-29T06:16:08.658Z,11.47
2018-08-29T06:18:38.326Z,12.17
2018-08-29T06:21:07.443Z,12.70
2018-08-29T06:23:36.849Z,12.83
2018-08-29T06:26:05.998Z,13.37
2018-08-29T06:28:35.182Z,13.53
2018-08-29T06:31:05.053Z,13.50
2018-08-29T06:33:34.246Z,13.37
2018-08-29T06:36:03.685Z,12.40
2018-08-29T06:38:32.881Z,12.83
2018-08-29T06:41:02.059Z,11.10
2018-08-29T06:43:31.240Z,11.13
2018-08-29T06:46:00.427Z,11.47
2018-08-29T06:48:29.566Z,11.63
2018-08-29T06:50:58.725Z,11.93
2018-08-29T06:53:27.903Z,11.70
2018-08-29T06:55:57.102Z,11.03
2018-08-29T06:58:26.261Z,10.37
2018-08-29T07:00:55.528Z,11.57
2018-08-29T07:03:24.763Z,11.70
2018-08-29T07:05:54.006Z,11.13
2018-08-29T07:08:23.237Z,11.07
2018-08-29T07:10:52.426Z,10.87
2018-08-29T07:13:21.636Z,10.77
2018-08-29T07:15:50.848Z,11.13
2018-08-29T07:18:24.592Z,9.70
2018-08-29T07:20:54.829Z,10.20
2018-08-29T07:23:24.040Z,10.30
2018-08-29T07:25:53.333Z,10.47
2018-08-29T07:28:22.596Z,9.48
2018-08-29T07:30:51.808Z,9.75
2018-08-29T07:33:21.005Z,10.20
2018-08-29T07:35:50.359Z,10.65
2018-08-29T07:38:19.521Z,10.03
2018-08-29T07:40:48.706Z,9.83
2018-08-29T07:43:17.859Z,10.50
2018-08-29T07:45:46.988Z,9.95
2018-08-29T07:48:16.276Z,9.53
2018-08-29T07:50:45.581Z,10.18
2018-08-29T07:53:14.746Z,9.83
2018-08-29T07:55:44.277Z,10.48
2018-08-29T07:58:13.458Z,9.70
2018-08-29T08:00:43.015Z,10.30
2018-08-29T08:03:12.218Z,10.60
2018-08-29T08:05:41.357Z,10.68
2018-08-29T08:08:10.737Z,9.50
2018-08-29T08:10:39.845Z,10.43
2018-08-29T08:13:09.005Z,10.70
2018-08-29T08:15:38.171Z,11.20
2018-08-29T08:18:07.364Z,10.65
2018-08-29T08:20:36.541Z,10.80
2018-08-29T08:23:05.809Z,9.98
2018-08-29T08:25:35.031Z,10.82
2018-08-29T08:28:04.224Z,9.77
2018-08-29T08:30:33.529Z,10.47
2018-08-29T08:33:02.892Z,10.30
2018-08-29T08:35:32.196Z,10.20
2018-08-29T08:38:01.362Z,10.83
2018-08-29T08:40:30.617Z,9.97
2018-08-29T08:43:00.586Z,10.00
2018-08-29T08:45:29.761Z,11.23
2018-08-29T08:47:59.101Z,10.00
2018-08-29T08:50:28.248Z,10.53
2018-08-29T08:52:57.456Z,10.27
2018-08-29T08:55:26.623Z,10.47
2018-08-29T08:57:55.801Z,10.00
2018-08-29T09:00:25.049Z,9.80
2018-08-29T09:03:00.903Z,10.07
2018-08-29T09:05:30.186Z,9.57
2018-08-29T09:07:59.370Z,9.50
2018-08-29T09:10:28.550Z,9.70
2018-08-29T09:12:57.807Z,8.30
2018-08-29T09:15:26.971Z,8.83
2018-08-29T09:17:56.162Z,8.23
2018-08-29T09:20:25.385Z,7.67
2018-08-29T09:22:54.582Z,8.40
2018-08-29T09:25:23.869Z,7.20
2018-08-29T09:27:53.121Z,8.10
2018-08-29T09:30:22.307Z,8.45
2018-08-29T09:32:51.643Z,7.62
2018-08-29T09:35:20.935Z,7.08
2018-08-29T09:37:50.351Z,6.55
2018-08-29T09:40:19.622Z,6.72
2018-08-29T09:42:48.783Z,7.90
2018-08-29T09:45:18.530Z,9.25
2018-08-29T09:47:47.799Z,11.48
2018-08-29T09:50:17.078Z,7.10
2018-08-29T09:52:46.227Z,8.23
2018-08-29T09:55:15.421Z,16.20
2018-08-29T09:57:44.656Z,8.00
2018-08-29T10:00:18.077Z,7.60
2018-08-29T10:02:52.457Z,6.35
2018-08-29T10:05:21.809Z,15.83
2018-08-29T10:07:51.474Z,7.58
2018-08-29T10:13:03.799Z,8.18
2018-08-29T10:15:35.218Z,7.25
2018-08-29T10:18:04.400Z,6.60
2018-08-29T10:20:33.622Z,12.93
2018-08-29T10:23:03.956Z,15.72
2018-08-29T10:25:33.213Z,11.03
2018-08-29T10:28:02.477Z,6.65
2018-08-29T10:30:31.662Z,8.10
2018-08-29T10:33:00.847Z,7.42
2018-08-29T10:35:30.751Z,8.58
2018-08-29T10:37:59.962Z,17.57
2018-08-29T10:40:29.123Z,7.28
2018-08-29T10:42:58.337Z,6.72
2018-08-29T10:45:27.603Z,6.40
2018-08-29T10:47:56.856Z,12.43
2018-08-29T10:50:26.084Z,12.05
2018-08-29T10:52:55.379Z,6.95
2018-08-29T10:55:24.698Z,6.15
2018-08-29T10:57:53.831Z,6.58
2018-08-29T11:00:23.175Z,6.08
2018-08-29T11:02:52.892Z,6.50
2018-08-29T11:05:22.039Z,26.68
2018-08-29T11:07:51.239Z,9.50
2018-08-29T11:10:20.449Z,35.92
2018-08-29T11:12:49.743Z,7.30
2018-08-29T11:15:18.997Z,6.70
2018-08-29T11:17:48.186Z,7.87
2018-08-29T11:20:17.348Z,6.55
2018-08-29T11:22:46.533Z,6.28
2018-08-29T11:25:15.722Z,7.85
2018-08-29T11:27:44.921Z,6.30
2018-08-29T11:30:14.119Z,5.90
2018-08-29T11:32:43.282Z,7.40
2018-08-29T11:35:12.470Z,5.83
2018-08-29T11:37:41.650Z,6.22
2018-08-29T11:40:10.825Z,6.65
2018-08-29T11:42:39.983Z,6.40
2018-08-29T11:45:09.114Z,7.30
2018-08-29T11:47:38.246Z,6.37
2018-08-29T11:50:07.755Z,6.15
2018-08-29T11:52:36.951Z,6.70
2018-08-29T11:55:06.923Z,6.40
2018-08-29T11:57:36.662Z,6.33
2018-08-29T12:00:07.524Z,6.25
2018-08-29T12:02:36.708Z,5.97
2018-08-29T12:05:06.042Z,7.25
2018-08-29T12:07:35.410Z,7.85
2018-08-29T12:10:04.418Z,7.80
2018-08-29T12:12:33.638Z,7.17
2018-08-29T12:15:02.788Z,7.42
2018-08-29T12:17:31.964Z,7.17
2018-08-29T12:20:01.239Z,6.55
2018-08-29T12:22:30.428Z,6.50
2018-08-29T12:24:59.586Z,6.20
2018-08-29T12:27:28.743Z,6.10
2018-08-29T12:29:57.906Z,5.33
2018-08-29T12:32:27.076Z,5.10
2018-08-29T12:34:56.436Z,5.22
2018-08-29T12:37:25.627Z,5.22
2018-08-29T12:39:54.884Z,5.20
2018-08-29T12:42:24.174Z,5.65
2018-08-29T12:44:53.390Z,5.45
2018-08-29T12:47:22.594Z,5.50
2018-08-29T12:49:51.881Z,6.28
2018-08-29T12:52:20.973Z,6.25
2018-08-29T12:54:50.193Z,17.20
2018-08-29T12:57:19.371Z,8.15
2018-08-29T12:59:48.575Z,11.60
2018-08-29T13:02:17.799Z,7.85
2018-08-29T13:04:47.000Z,8.25
2018-08-29T13:07:16.218Z,6.67
2018-08-29T13:09:45.386Z,6.45
2018-08-29T13:12:17.561Z,6.75
2018-08-29T13:14:46.910Z,6.33
2018-08-29T13:17:16.087Z,6.92
2018-08-29T13:19:45.298Z,6.95
2018-08-29T13:22:14.574Z,6.45
2018-08-29T13:24:43.825Z,6.67
2018-08-29T13:27:13.154Z,6.87
2018-08-29T13:29:42.288Z,7.90
2018-08-29T13:32:11.498Z,8.55
2018-08-29T13:34:40.654Z,8.15
2018-08-29T13:37:09.883Z,8.60
2018-08-29T13:39:39.050Z,8.25
2018-08-29T13:42:08.421Z,8.20
2018-08-29T13:44:37.577Z,8.98
2018-08-29T13:47:06.842Z,8.53
2018-08-29T13:49:36.072Z,8.85
2018-08-29T13:52:05.234Z,10.88
2018-08-29T13:54:34.402Z,8.83
2018-08-29T13:57:03.651Z,8.43
2018-08-29T13:59:32.842Z,8.35
2018-08-29T14:02:02.002Z,8.13
2018-08-29T14:04:31.162Z,8.28
2018-08-29T14:07:00.428Z,8.65
2018-08-29T14:09:29.736Z,9.20
2018-08-29T14:11:58.899Z,8.75
2018-08-29T14:14:28.009Z,7.97
2018-08-29T14:16:57.282Z,8.53
2018-08-29T14:19:26.514Z,7.67
2018-08-29T14:21:55.677Z,7.47
2018-08-29T14:24:25.167Z,7.03
2018-08-29T14:26:54.362Z,6.28
2018-08-29T14:29:26.630Z,6.60
2018-08-29T14:31:55.777Z,6.90
2018-08-29T14:34:25.013Z,6.60
2018-08-29T14:36:54.263Z,6.12
2018-08-29T14:39:23.418Z,6.80
2018-08-29T14:41:52.611Z,6.42
2018-08-29T14:44:21.757Z,6.22
2018-08-29T14:46:50.917Z,6.12
2018-08-29T14:49:20.103Z,6.37
2018-08-29T14:51:49.284Z,6.05
2018-08-29T14:54:18.475Z,6.35
2018-08-29T14:56:47.633Z,6.00
2018-08-29T14:59:16.856Z,6.40
2018-08-29T15:02:10.394Z,7.72
2018-08-29T15:04:41.019Z,6.33
2018-08-29T15:07:11.124Z,7.12
2018-08-29T15:09:41.097Z,5.87
2018-08-29T15:12:10.961Z,7.67
2018-08-29T15:14:40.155Z,5.85
2018-08-29T15:17:09.323Z,5.30
2018-08-29T15:19:38.518Z,6.20
2018-08-29T15:22:07.737Z,5.87
2018-08-29T15:24:36.866Z,5.62
2018-08-29T15:27:06.067Z,6.83
2018-08-29T15:29:36.481Z,5.85
2018-08-29T15:32:05.777Z,5.92
2018-08-29T15:34:34.923Z,8.05
2018-08-29T15:37:04.166Z,7.00
2018-08-29T15:39:33.557Z,6.55
2018-08-29T15:42:03.051Z,5.67
2018-08-29T15:44:32.160Z,6.05
2018-08-29T15:47:01.464Z,5.80
2018-08-29T15:49:31.035Z,5.15
2018-08-29T15:52:00.193Z,5.92
2018-08-29T15:54:29.345Z,6.33
2018-08-29T15:56:58.518Z,5.85
2018-08-29T15:59:27.665Z,5.70
2018-08-29T16:01:56.867Z,5.80
2018-08-29T16:04:26.006Z,5.45
2018-08-29T16:06:55.168Z,5.33
2018-08-29T16:09:24.301Z,5.30
2018-08-29T16:11:53.513Z,5.45
2018-08-29T16:14:22.753Z,5.50
2018-08-29T16:16:51.928Z,5.00
2018-08-29T16:19:21.063Z,5.35
2018-08-29T16:21:50.242Z,5.65
2018-08-29T16:24:19.471Z,5.53
2018-08-29T16:26:48.621Z,5.37
2018-08-29T16:29:17.878Z,4.83
2018-08-29T16:31:47.054Z,5.22
2018-08-29T16:34:16.194Z,4.58
2018-08-29T16:36:45.495Z,4.58
2018-08-29T16:39:14.599Z,4.70
2018-08-29T16:41:43.883Z,4.97
2018-08-29T16:44:13.164Z,5.03
2018-08-29T16:46:42.328Z,4.70
2018-08-29T16:49:11.477Z,4.10
2018-08-29T16:51:40.724Z,5.00
2018-08-29T16:54:09.982Z,4.47
2018-08-29T16:56:39.249Z,4.35
2018-08-29T16:59:08.510Z,4.30
2018-08-29T17:01:37.744Z,4.47
2018-08-29T17:04:06.897Z,4.15
2018-08-29T17:06:36.103Z,4.00
2018-08-29T17:09:05.805Z,4.90
2018-08-29T17:11:34.968Z,4.42
2018-08-29T17:14:04.206Z,3.85
2018-08-29T17:16:33.379Z,4.20
2018-08-29T17:19:02.946Z,4.17
2018-08-29T17:21:32.101Z,4.72
2018-08-29T17:24:01.365Z,4.20
2018-08-29T17:26:30.619Z,4.65
2018-08-29T17:28:59.733Z,4.65
2018-08-29T17:31:29.089Z,4.30
2018-08-29T17:33:58.285Z,5.20
2018-08-29T17:36:27.482Z,5.00
2018-08-29T17:38:56.786Z,4.42
2018-08-29T17:41:26.410Z,5.08
2018-08-29T17:43:55.844Z,4.70
2018-08-29T17:46:25.296Z,4.62
2018-08-29T17:48:54.728Z,4.90
2018-08-29T17:51:24.294Z,4.17
2018-08-29T17:53:53.802Z,3.80
2018-08-29T17:56:24.679Z,3.90
2018-08-29T17:58:54.059Z,4.10
2018-08-29T18:01:23.536Z,3.45
2018-08-29T18:03:52.984Z,3.30
2018-08-29T18:06:22.335Z,3.75
2018-08-29T18:08:51.659Z,3.80
2018-08-29T18:11:21.560Z,3.62
2018-08-29T18:13:51.048Z,3.37
2018-08-29T18:16:20.411Z,3.52
2018-08-29T18:18:49.772Z,3.62
2018-08-29T18:21:19.112Z,3.30
2018-08-29T18:23:48.295Z,3.15
2018-08-29T18:26:17.605Z,3.12
2018-08-29T18:28:46.660Z,3.10
2018-08-29T18:31:15.819Z,3.17
2018-08-29T18:33:45.012Z,3.00
2018-08-29T18:36:14.315Z,3.05
2018-08-29T18:38:43.567Z,3.70
2018-08-29T18:41:12.778Z,2.98
2018-08-29T18:43:42.009Z,3.05
2018-08-29T18:46:11.289Z,3.33
2018-08-29T18:48:40.657Z,2.83
2018-08-29T18:51:09.926Z,3.00
2018-08-29T18:53:39.086Z,3.05
2018-08-29T18:56:08.373Z,2.85
2018-08-29T18:58:37.519Z,2.90
2018-08-29T19:01:06.761Z,3.08
2018-08-29T19:03:35.956Z,3.22
2018-08-29T19:06:05.173Z,3.10
2018-08-29T19:08:34.471Z,3.22
2018-08-29T19:11:03.621Z,2.92
2018-08-29T19:13:32.935Z,2.87
2018-08-29T19:16:02.291Z,3.33
2018-08-29T19:18:31.722Z,3.27
2018-08-29T19:21:00.934Z,3.83
2018-08-29T19:23:30.219Z,3.50
2018-08-29T19:25:59.491Z,3.10
2018-08-29T19:28:29.497Z,3.02
2018-08-29T19:30:58.653Z,3.15
2018-08-29T19:33:28.566Z,3.42
2018-08-29T19:35:57.881Z,3.00
2018-08-29T19:38:27.185Z,3.65
2018-08-29T19:40:56.406Z,3.35
2018-08-29T19:43:25.655Z,2.83
2018-08-29T19:45:54.895Z,2.62
2018-08-29T19:48:24.063Z,2.87
2018-08-29T19:50:53.483Z,2.95
2018-08-29T19:53:22.556Z,2.70
2018-08-29T19:55:51.764Z,3.00
2018-08-29T19:58:20.970Z,3.00
2018-08-29T20:00:51.128Z,2.70
2018-08-29T20:03:20.279Z,2.90
2018-08-29T20:05:49.572Z,2.85
2018-08-29T20:08:18.708Z,2.77
2018-08-29T20:10:47.888Z,2.85
2018-08-29T20:13:17.004Z,2.83
2018-08-29T20:15:46.196Z,2.87
2018-08-29T20:18:15.561Z,2.92
2018-08-29T20:20:44.838Z,3.80
2018-08-29T20:23:14.070Z,3.87
2018-08-29T20:25:43.574Z,3.50
2018-08-29T20:28:12.782Z,3.30
2018-08-29T20:30:42.055Z,2.98
2018-08-29T20:33:11.294Z,2.95
2018-08-29T20:35:40.590Z,3.00
2018-08-29T20:38:10.765Z,2.60
2018-08-29T20:40:39.930Z,4.45
2018-08-29T20:43:09.296Z,3.30
2018-08-29T20:45:38.925Z,3.37
2018-08-29T20:48:22.514Z,3.77
2018-08-29T20:50:37.280Z,3.60
2018-08-29T20:53:06.683Z,3.40
2018-08-29T20:55:35.883Z,3.33
2018-08-29T20:58:05.112Z,3.10
2018-08-29T21:00:34.417Z,2.80
2018-08-29T21:03:03.529Z,3.17
2018-08-29T21:05:32.739Z,3.22
2018-08-29T21:08:01.918Z,3.10
2018-08-29T21:10:31.348Z,2.83
2018-08-29T21:13:00.526Z,2.80
2018-08-29T21:15:29.782Z,3.52
2018-08-29T21:17:58.975Z,2.85
2018-08-29T21:20:28.221Z,2.67
2018-08-29T21:22:57.417Z,3.00
2018-08-29T21:25:26.636Z,3.00
2018-08-29T21:28:19.909Z,2.80
2018-08-29T21:31:00.970Z,3.10
2018-08-29T21:34:38.770Z,3.80
2018-08-29T21:37:23.657Z,4.10
2018-08-29T21:39:52.839Z,2.65
2018-08-29T21:42:22.000Z,3.05
2018-08-29T21:46:01.894Z,5.25
2018-08-29T21:48:46.980Z,2.37
2018-08-29T21:51:34.169Z,2.75
2018-08-29T21:56:19.806Z,2.33
2018-08-29T22:01:09.738Z,3.10
2018-08-29T22:04:48.544Z,2.08
2018-08-29T22:07:18.224Z,2.03
2018-08-29T22:09:49.132Z,2.65
2018-08-29T22:12:20.634Z,3.17
2018-08-29T22:14:49.873Z,2.42
2018-08-29T22:17:19.405Z,2.50
2018-08-29T22:19:48.585Z,2.30
2018-08-29T22:22:17.895Z,3.60
2018-08-29T22:24:47.267Z,2.72
2018-08-29T22:27:16.725Z,2.85
2018-08-29T22:29:45.956Z,3.20
2018-08-29T22:32:15.207Z,2.60
2018-08-29T22:34:44.479Z,2.67
2018-08-29T22:37:13.667Z,2.50
2018-08-29T22:39:42.863Z,4.13
2018-08-29T22:42:12.088Z,2.40
2018-08-29T22:44:42.029Z,2.00
2018-08-29T22:47:11.304Z,2.22
2018-08-29T22:49:40.438Z,2.17
2018-08-29T22:52:09.618Z,2.00
2018-08-29T22:54:38.752Z,2.30
2018-08-29T22:57:07.903Z,2.37
2018-08-29T22:59:37.067Z,2.37
2018-08-29T23:02:06.275Z,2.00
2018-08-29T23:04:35.377Z,2.52
2018-08-29T23:07:04.570Z,2.72
2018-08-29T23:09:33.808Z,1.95
2018-08-29T23:12:02.958Z,2.25
2018-08-29T23:14:33.007Z,2.37
2018-08-29T23:17:02.210Z,2.27
2018-08-29T23:19:31.367Z,2.33
2018-08-29T23:22:00.783Z,2.10
2018-08-29T23:24:29.969Z,2.20
2018-08-29T23:26:59.194Z,3.07
2018-08-29T23:29:28.338Z,2.37
2018-08-29T23:31:57.486Z,2.20
2018-08-29T23:34:26.634Z,1.70
2018-08-29T23:36:55.835Z,2.30
2018-08-29T23:39:25.084Z,1.77
2018-08-29T23:41:54.353Z,2.10
2018-08-29T23:44:23.528Z,2.67
2018-08-29T23:46:52.730Z,1.90
2018-08-29T23:49:21.905Z,2.20
2018-08-29T23:51:51.045Z,2.30
2018-08-29T23:54:20.518Z,2.43
2018-08-29T23:56:49.670Z,2.20
2018-08-29T23:59:19.056Z,2.37
